createdAt,value
2022-11-20T00:01:11.158Z,30.52
2022-11-20T00:03:38.251Z,28.50
2022-11-20T00:06:06.716Z,27.80
2022-11-20T00:08:33.434Z,29.42
2022-11-20T00:11:05.326Z,28.00
2022-11-20T00:13:32.176Z,26.60
2022-11-20T00:15:59.406Z,28.57
2022-11-20T00:18:26.158Z,30.77
2022-11-20T00:20:53.054Z,32.35
2022-11-20T00:23:20.074Z,30.90
2022-11-20T00:25:46.733Z,29.63
2022-11-20T00:28:14.773Z,30.57
2022-11-20T00:30:41.554Z,29.55
2022-11-20T00:33:08.177Z,30.60
2022-11-20T00:35:34.892Z,29.75
2022-11-20T00:38:01.564Z,30.38
2022-11-20T00:40:28.249Z,29.63
2022-11-20T00:42:54.901Z,31.65
2022-11-20T00:45:22.908Z,29.15
2022-11-20T00:47:49.581Z,29.10
2022-11-20T00:50:16.226Z,31.63
2022-11-20T00:52:42.934Z,30.10
2022-11-20T00:55:09.646Z,30.20
2022-11-20T00:57:36.370Z,28.50
2022-11-20T01:00:03.924Z,28.90
2022-11-20T01:02:31.915Z,31.42
2022-11-20T01:04:58.756Z,31.47
2022-11-20T01:07:25.449Z,30.98
2022-11-20T01:09:52.084Z,26.88
2022-11-20T01:12:18.760Z,29.63
2022-11-20T01:14:45.494Z,30.85
2022-11-20T01:17:12.150Z,29.97
2022-11-20T01:19:40.182Z,30.85
2022-11-20T01:22:06.794Z,31.08
2022-11-20T01:24:33.566Z,29.55
2022-11-20T01:27:00.193Z,34.03
2022-11-20T01:29:26.873Z,30.37
2022-11-20T01:31:54.129Z,32.58
2022-11-20T01:34:22.244Z,31.60
2022-11-20T01:36:51.059Z,31.02
2022-11-20T01:39:20.096Z,27.85
2022-11-20T01:41:48.293Z,31.90
2022-11-20T01:44:17.261Z,26.70
2022-11-20T01:46:59.356Z,30.20
2022-11-20T01:49:30.860Z,30.75
2022-11-20T01:52:02.565Z,31.13
2022-11-20T01:54:36.255Z,30.20
2022-11-20T01:57:05.102Z,27.83
2022-11-20T01:59:31.998Z,30.42
2022-11-20T02:01:59.052Z,29.58
2022-11-20T02:04:26.034Z,30.65
2022-11-20T02:07:00.140Z,31.20
2022-11-20T02:09:27.241Z,30.15
2022-11-20T02:11:54.586Z,28.88
2022-11-20T02:14:22.790Z,29.05
2022-11-20T02:16:50.493Z,33.25
2022-11-20T02:19:24.259Z,28.00
2022-11-20T02:22:00.937Z,30.00
2022-11-20T02:24:29.316Z,31.73
2022-11-20T02:27:00.546Z,30.48
2022-11-20T02:29:31.962Z,31.25
2022-11-20T02:32:01.220Z,29.53
2022-11-20T02:34:27.869Z,28.77
2022-11-20T02:36:54.690Z,33.65
2022-11-20T02:39:24.082Z,27.27
2022-11-20T02:41:53.856Z,31.45
2022-11-20T02:44:20.634Z,28.67
2022-11-20T02:46:47.301Z,30.75
2022-11-20T02:49:13.932Z,30.55
2022-11-20T02:51:40.670Z,30.80
2022-11-20T02:54:07.304Z,26.52
2022-11-20T02:56:33.990Z,25.67
2022-11-20T02:59:02.004Z,31.42
2022-11-20T03:01:28.728Z,29.02
2022-11-20T03:03:55.362Z,27.45
2022-11-20T03:06:21.988Z,32.17
2022-11-20T03:08:48.773Z,29.87
2022-11-20T03:11:15.456Z,30.05
2022-11-20T03:13:42.138Z,30.42
2022-11-20T03:16:13.203Z,34.40
2022-11-20T03:18:40.600Z,33.13
2022-11-20T03:21:07.840Z,29.70
2022-11-20T03:23:35.151Z,30.88
2022-11-20T03:26:12.173Z,29.27
2022-11-20T03:28:39.202Z,27.55
2022-11-20T03:31:08.434Z,30.98
2022-11-20T03:33:36.445Z,29.67
2022-11-20T03:36:04.467Z,28.75
2022-11-20T03:38:36.225Z,28.75
2022-11-20T03:41:04.569Z,27.45
2022-11-20T03:43:31.664Z,31.60
2022-11-20T03:45:58.726Z,26.60
2022-11-20T03:48:25.723Z,27.88
2022-11-20T03:50:54.359Z,27.50
2022-11-20T03:53:21.386Z,28.17
2022-11-20T03:55:52.068Z,30.05
2022-11-20T03:58:18.747Z,27.10
2022-11-20T04:00:45.537Z,29.23
2022-11-20T04:03:12.176Z,30.40
2022-11-20T04:05:38.864Z,26.55
2022-11-20T04:08:07.067Z,29.20
2022-11-20T04:10:33.703Z,30.20
2022-11-20T04:13:00.502Z,30.70
2022-11-20T04:15:27.169Z,27.95
2022-11-20T04:17:55.267Z,26.02
2022-11-20T04:20:22.069Z,27.88
2022-11-20T04:22:48.729Z,29.30
2022-11-20T04:25:16.722Z,26.77
2022-11-20T04:27:43.372Z,29.60
2022-11-20T04:30:11.334Z,29.55
2022-11-20T04:32:37.991Z,31.50
2022-11-20T04:35:05.241Z,26.40
2022-11-20T04:37:31.938Z,25.90
2022-11-20T04:39:58.589Z,30.50
2022-11-20T04:42:26.635Z,28.90
2022-11-20T04:44:53.269Z,28.05
2022-11-20T04:47:19.906Z,31.30
2022-11-20T04:49:46.643Z,30.25
2022-11-20T04:52:13.431Z,30.42
2022-11-20T04:54:40.121Z,31.88
2022-11-20T04:57:11.357Z,30.40
2022-11-20T04:59:42.414Z,34.83
2022-11-20T05:02:09.314Z,26.98
2022-11-20T05:04:35.937Z,33.50
2022-11-20T05:07:02.655Z,31.02
2022-11-20T05:09:29.374Z,30.55
2022-11-20T05:11:56.020Z,26.50
2022-11-20T05:14:22.686Z,32.25
2022-11-20T05:16:50.722Z,29.85
2022-11-20T05:19:17.434Z,29.45
2022-11-20T05:21:44.129Z,31.48
2022-11-20T05:24:10.917Z,30.50
2022-11-20T05:26:37.655Z,29.13
2022-11-20T05:29:04.403Z,30.80
2022-11-20T05:31:31.057Z,30.83
2022-11-20T05:33:59.075Z,33.65
2022-11-20T05:36:25.972Z,29.07
2022-11-20T05:38:56.675Z,29.02
2022-11-20T05:41:26.639Z,32.67
2022-11-20T05:43:53.330Z,33.05
2022-11-20T05:46:27.843Z,32.33
2022-11-20T05:48:56.012Z,31.13
2022-11-20T05:51:24.731Z,30.95
2022-11-20T05:53:51.422Z,29.63
2022-11-20T05:56:20.892Z,27.38
2022-11-20T05:58:48.481Z,29.48
2022-11-20T06:01:17.057Z,32.20
2022-11-20T06:03:44.131Z,29.40
2022-11-20T06:06:10.901Z,33.67
2022-11-20T06:08:38.933Z,28.08
2022-11-20T06:11:06.874Z,28.15
2022-11-20T06:13:37.937Z,28.63
2022-11-20T06:16:07.763Z,30.95
2022-11-20T06:18:34.403Z,28.50
2022-11-20T06:21:02.737Z,27.02
2022-11-20T06:23:30.617Z,28.80
2022-11-20T06:26:01.651Z,30.00
2022-11-20T06:28:28.280Z,33.30
2022-11-20T06:30:54.921Z,30.92
2022-11-20T06:33:21.564Z,30.85
2022-11-20T06:35:48.312Z,31.42
2022-11-20T06:38:15.019Z,29.27
2022-11-20T06:40:41.978Z,29.10
2022-11-20T06:43:10.140Z,34.75
2022-11-20T06:45:37.084Z,30.90
2022-11-20T06:48:04.495Z,29.88
2022-11-20T06:50:31.296Z,33.67
2022-11-20T06:53:01.056Z,30.52
2022-11-20T06:55:27.664Z,27.20
2022-11-20T06:57:56.049Z,30.85
2022-11-20T07:00:24.548Z,28.85
2022-11-20T07:02:51.207Z,29.80
2022-11-20T07:05:18.811Z,26.35
2022-11-20T07:07:45.472Z,29.80
2022-11-20T07:10:12.783Z,28.67
2022-11-20T07:12:39.436Z,31.77
2022-11-20T07:15:07.415Z,27.10
2022-11-20T07:17:35.417Z,29.85
2022-11-20T07:20:02.129Z,29.02
2022-11-20T07:22:28.803Z,31.00
2022-11-20T07:24:55.452Z,29.15
2022-11-20T07:27:22.178Z,29.50
2022-11-20T07:29:48.846Z,30.98
2022-11-20T07:32:15.592Z,34.80
2022-11-20T07:34:43.604Z,28.15
2022-11-20T07:37:10.629Z,31.48
2022-11-20T07:39:37.467Z,28.63
2022-11-20T07:42:04.199Z,31.83
2022-11-20T07:44:30.855Z,36.05
2022-11-20T07:46:57.504Z,31.58
2022-11-20T07:49:24.435Z,29.13
2022-11-20T07:51:52.622Z,28.70
2022-11-20T07:54:19.335Z,28.13
2022-11-20T07:56:46.006Z,28.52
2022-11-20T07:59:12.759Z,29.23
2022-11-20T08:01:39.444Z,31.00
2022-11-20T08:04:06.117Z,27.70
2022-11-20T08:06:33.147Z,29.95
2022-11-20T08:09:01.227Z,29.65
2022-11-20T08:11:27.921Z,29.40
2022-11-20T08:13:54.576Z,29.58
2022-11-20T08:16:21.212Z,29.80
2022-11-20T08:18:47.872Z,31.45
2022-11-20T08:21:14.532Z,31.85
2022-11-20T08:23:41.187Z,30.80
2022-11-20T08:26:09.227Z,31.15
2022-11-20T08:28:35.990Z,31.37
2022-11-20T08:31:03.808Z,31.90
2022-11-20T08:33:31.187Z,29.73
2022-11-20T08:36:00.228Z,31.33
2022-11-20T08:38:26.926Z,31.27
2022-11-20T08:40:57.535Z,30.43
2022-11-20T08:43:25.629Z,32.95
2022-11-20T08:45:52.282Z,36.47
2022-11-20T08:48:19.028Z,32.83
2022-11-20T08:50:45.644Z,32.25
2022-11-20T08:53:12.420Z,32.77
2022-11-20T08:55:43.388Z,31.90
2022-11-20T08:58:10.087Z,29.10
2022-11-20T09:00:38.147Z,29.42
2022-11-20T09:03:04.856Z,31.80
2022-11-20T09:05:31.512Z,35.70
2022-11-20T09:07:58.335Z,33.58
2022-11-20T09:10:25.363Z,30.52
2022-11-20T09:12:52.202Z,30.63
2022-11-20T09:15:19.274Z,32.33
2022-11-20T09:17:52.814Z,29.57
2022-11-20T09:20:19.760Z,32.15
2022-11-20T09:22:46.530Z,33.10
2022-11-20T09:25:13.157Z,31.25
2022-11-20T09:27:39.856Z,31.45
2022-11-20T09:30:07.935Z,29.43
2022-11-20T09:32:34.611Z,35.53
2022-11-20T09:35:02.793Z,32.83
2022-11-20T09:37:29.456Z,36.33
2022-11-20T09:39:56.121Z,35.05
2022-11-20T09:42:33.870Z,36.93
2022-11-20T09:45:16.499Z,35.83
2022-11-20T09:47:58.770Z,37.38
2022-11-20T09:50:33.000Z,35.25
2022-11-20T09:53:17.094Z,33.83
2022-11-20T09:55:43.929Z,34.47
2022-11-20T09:58:19.310Z,37.85
2022-11-20T10:00:49.414Z,33.58
2022-11-20T10:03:23.125Z,35.13
2022-11-20T10:05:54.962Z,36.17
2022-11-20T10:08:25.050Z,34.83
2022-11-20T10:10:57.652Z,35.28
2022-11-20T10:13:40.744Z,34.92
2022-11-20T10:16:24.935Z,34.15
2022-11-20T10:19:04.610Z,34.58
2022-11-20T10:21:42.730Z,38.80
2022-11-20T10:24:43.234Z,41.72
2022-11-20T10:27:24.260Z,37.42
2022-11-20T10:30:00.572Z,39.03
2022-11-20T10:32:35.139Z,39.30
2022-11-20T10:35:05.363Z,39.50
2022-11-20T10:37:37.821Z,36.95
2022-11-20T10:40:19.225Z,40.42
2022-11-20T10:42:49.811Z,42.25
2022-11-20T10:45:22.794Z,44.50
2022-11-20T10:47:49.809Z,43.50
2022-11-20T10:50:22.412Z,43.53
2022-11-20T10:53:03.760Z,46.97
2022-11-20T10:55:40.051Z,44.88
2022-11-20T10:58:14.487Z,40.80
2022-11-20T11:00:41.855Z,41.37
2022-11-20T11:03:23.438Z,37.58
2022-11-20T11:05:54.867Z,36.55
2022-11-20T11:08:23.755Z,39.75
2022-11-20T11:10:54.313Z,39.72
2022-11-20T11:13:22.269Z,36.47
2022-11-20T11:15:48.917Z,44.25
2022-11-20T11:18:24.820Z,42.70
2022-11-20T11:20:52.301Z,45.50
2022-11-20T11:23:32.367Z,37.95
2022-11-20T11:26:00.730Z,39.10
2022-11-20T11:28:28.406Z,39.63
2022-11-20T11:30:56.147Z,38.03
2022-11-20T11:33:24.499Z,40.85
2022-11-20T11:35:53.431Z,39.63
2022-11-20T11:38:23.727Z,39.90
2022-11-20T11:40:54.914Z,38.28
2022-11-20T11:43:24.595Z,42.20
2022-11-20T11:45:54.598Z,38.00
2022-11-20T11:48:21.909Z,35.15
2022-11-20T11:50:50.326Z,41.70
2022-11-20T11:53:18.915Z,30.10
2022-11-20T11:55:50.989Z,34.10
2022-11-20T11:58:34.227Z,37.33
2022-11-20T12:01:08.837Z,33.35
2022-11-20T12:03:37.500Z,34.00
2022-11-20T12:06:11.332Z,34.35
2022-11-20T12:08:45.357Z,30.05
2022-11-20T12:11:15.237Z,27.27
2022-11-20T12:13:49.381Z,30.02
2022-11-20T12:16:20.139Z,32.87
2022-11-20T12:18:48.992Z,31.45
2022-11-20T12:21:31.851Z,33.25
2022-11-20T12:24:21.813Z,34.33
2022-11-20T12:27:05.617Z,32.80
2022-11-20T12:29:43.806Z,34.73
2022-11-20T12:32:39.119Z,37.80
2022-11-20T12:35:19.905Z,38.83
2022-11-20T12:37:57.323Z,41.20
2022-11-20T12:40:35.245Z,43.92
2022-11-20T12:43:12.590Z,39.70
2022-11-20T12:46:22.840Z,36.47
2022-11-20T12:49:19.275Z,52.10
2022-11-20T12:52:01.656Z,64.57
2022-11-20T12:54:47.010Z,46.22
2022-11-20T12:57:21.326Z,36.03
2022-11-20T12:59:58.984Z,39.30
2022-11-20T13:02:34.505Z,39.58
2022-11-20T13:05:13.658Z,37.70
2022-11-20T13:07:41.820Z,40.92
2022-11-20T13:10:20.116Z,38.00
2022-11-20T13:12:51.306Z,34.70
2022-11-20T13:15:32.457Z,30.73
2022-11-20T13:18:02.467Z,35.03
2022-11-20T13:20:30.859Z,33.15
2022-11-20T13:22:58.057Z,35.13
2022-11-20T13:25:25.896Z,37.30
2022-11-20T13:27:53.824Z,36.63
2022-11-20T13:30:22.266Z,37.72
2022-11-20T13:32:51.316Z,33.47
2022-11-20T13:35:28.728Z,38.67
2022-11-20T13:38:04.670Z,32.53
2022-11-20T13:40:31.352Z,34.60
2022-11-20T13:43:08.144Z,39.25
2022-11-20T13:45:34.841Z,30.95
2022-11-20T13:48:04.796Z,26.73
2022-11-20T13:50:48.209Z,24.33
2022-11-20T13:53:44.012Z,30.15
2022-11-20T13:56:20.369Z,24.73
2022-11-20T13:59:03.706Z,24.45
2022-11-20T14:01:32.703Z,25.90
2022-11-20T14:04:07.466Z,23.88
2022-11-20T14:06:42.041Z,21.27
2022-11-20T14:09:12.213Z,22.58
2022-11-20T14:11:47.497Z,22.27
2022-11-20T14:14:17.304Z,25.93
2022-11-20T14:16:44.040Z,22.10
2022-11-20T14:19:30.714Z,25.35
2022-11-20T14:22:16.573Z,23.80
2022-11-20T14:24:43.275Z,23.60
2022-11-20T14:27:21.450Z,24.77
2022-11-20T14:29:50.400Z,25.52
2022-11-20T14:32:19.105Z,25.55
2022-11-20T14:34:48.241Z,22.63
2022-11-20T14:37:20.918Z,24.23
2022-11-20T14:39:51.713Z,33.20
2022-11-20T14:42:20.782Z,29.23
2022-11-20T14:44:49.083Z,30.40
2022-11-20T14:47:19.768Z,31.35
2022-11-20T14:49:47.136Z,30.45
2022-11-20T14:52:17.492Z,31.90
2022-11-20T14:54:46.488Z,34.65
2022-11-20T14:57:23.691Z,31.33
2022-11-20T14:59:50.576Z,31.42
2022-11-20T15:02:17.597Z,28.88
2022-11-20T15:04:48.496Z,25.53
2022-11-20T15:07:26.732Z,24.38
2022-11-20T15:10:04.656Z,24.17
2022-11-20T15:12:32.156Z,23.70
2022-11-20T15:14:59.513Z,23.48
2022-11-20T15:17:26.235Z,22.10
2022-11-20T15:19:54.992Z,22.45
2022-11-20T15:22:21.644Z,23.30
2022-11-20T15:24:49.660Z,20.92
2022-11-20T15:27:16.396Z,20.02
2022-11-20T15:29:43.443Z,19.97
2022-11-20T15:32:13.428Z,23.27
2022-11-20T15:34:40.653Z,21.45
2022-11-20T15:37:07.336Z,24.30
2022-11-20T15:39:33.945Z,20.80
2022-11-20T15:42:01.984Z,22.27
2022-11-20T15:44:28.614Z,23.80
2022-11-20T15:46:55.301Z,27.42
2022-11-20T15:49:22.113Z,27.92
2022-11-20T15:51:50.292Z,27.63
2022-11-20T15:54:19.021Z,25.30
2022-11-20T15:56:45.687Z,23.45
2022-11-20T15:59:13.792Z,23.80
2022-11-20T16:01:41.381Z,19.23
2022-11-20T16:04:11.186Z,22.45
2022-11-20T16:06:37.850Z,22.10
2022-11-20T16:09:04.552Z,20.42
2022-11-20T16:11:32.387Z,17.25
2022-11-20T16:13:59.153Z,19.00
2022-11-20T16:16:31.857Z,19.08
2022-11-20T16:18:59.015Z,22.30
2022-11-20T16:21:25.689Z,21.20
2022-11-20T16:23:52.376Z,24.17
2022-11-20T16:26:19.034Z,23.38
2022-11-20T16:28:45.982Z,23.77
2022-11-20T16:31:15.275Z,22.97
2022-11-20T16:33:43.880Z,26.30
2022-11-20T16:36:11.901Z,29.13
2022-11-20T16:38:38.804Z,28.13
2022-11-20T16:41:06.927Z,27.92
2022-11-20T16:43:33.661Z,26.27
2022-11-20T16:46:04.465Z,23.83
2022-11-20T16:48:31.248Z,24.90
2022-11-20T16:50:59.325Z,23.63
2022-11-20T16:53:26.403Z,26.70
2022-11-20T16:55:53.045Z,31.97
2022-11-20T16:58:19.731Z,28.55
2022-11-20T17:00:51.387Z,24.63
2022-11-20T17:03:18.680Z,23.42
2022-11-20T17:05:45.441Z,23.35
2022-11-20T17:08:13.484Z,26.73
2022-11-20T17:10:40.102Z,22.30
2022-11-20T17:13:06.802Z,24.08
2022-11-20T17:15:33.476Z,21.67
2022-11-20T17:18:00.149Z,24.30
2022-11-20T17:20:26.872Z,24.07
2022-11-20T17:22:53.566Z,22.80
2022-11-20T17:25:21.587Z,22.75
2022-11-20T17:27:48.270Z,22.70
2022-11-20T17:30:15.378Z,19.17
2022-11-20T17:32:42.039Z,20.30
2022-11-20T17:35:09.137Z,21.27
2022-11-20T17:37:35.756Z,25.40
2022-11-20T17:40:02.422Z,23.42
2022-11-20T17:42:30.629Z,25.17
2022-11-20T17:44:57.278Z,20.37
2022-11-20T17:47:24.187Z,26.02
2022-11-20T17:49:50.805Z,24.10
2022-11-20T17:52:17.457Z,21.05
2022-11-20T17:54:44.162Z,22.70
2022-11-20T17:57:10.872Z,22.13
2022-11-20T17:59:39.574Z,23.73
2022-11-20T18:02:06.260Z,25.05
2022-11-20T18:04:33.192Z,28.00
2022-11-20T18:06:59.878Z,38.38
2022-11-20T18:09:26.639Z,32.07
2022-11-20T18:11:53.365Z,23.67
2022-11-20T18:14:20.696Z,29.92
2022-11-20T18:16:51.403Z,24.95
2022-11-20T18:19:20.165Z,34.35
2022-11-20T18:21:47.279Z,40.93
2022-11-20T18:24:14.408Z,39.42
2022-11-20T18:26:44.234Z,29.88
2022-11-20T18:29:12.056Z,28.90
2022-11-20T18:31:39.030Z,29.48
2022-11-20T18:34:07.518Z,26.50
2022-11-20T18:36:34.374Z,28.77
2022-11-20T18:39:01.242Z,23.60
2022-11-20T18:41:30.805Z,26.65
2022-11-20T18:43:57.860Z,23.73
2022-11-20T18:46:24.557Z,24.87
2022-11-20T18:48:51.930Z,28.00
2022-11-20T18:51:19.909Z,25.73
2022-11-20T18:53:47.629Z,28.98
2022-11-20T18:56:14.448Z,29.75
2022-11-20T18:58:41.230Z,28.33
2022-11-20T19:01:08.459Z,30.63
2022-11-20T19:03:35.274Z,33.35
2022-11-20T19:06:02.094Z,30.13
2022-11-20T19:08:30.187Z,31.52
2022-11-20T19:11:05.889Z,29.63
2022-11-20T19:13:32.867Z,29.05
2022-11-20T19:16:02.313Z,25.58
2022-11-20T19:18:28.954Z,25.63
2022-11-20T19:20:55.620Z,27.73
2022-11-20T19:23:23.275Z,26.87
2022-11-20T19:25:51.289Z,30.70
2022-11-20T19:28:18.075Z,29.75
2022-11-20T19:30:44.731Z,33.47
2022-11-20T19:33:11.556Z,37.95
2022-11-20T19:35:38.232Z,29.57
2022-11-20T19:38:05.756Z,30.15
2022-11-20T19:40:32.466Z,31.60
2022-11-20T19:43:00.461Z,35.17
2022-11-20T19:45:27.256Z,32.33
2022-11-20T19:48:07.377Z,34.87
2022-11-20T19:50:34.974Z,31.25
2022-11-20T19:53:01.605Z,31.85
2022-11-20T19:55:28.330Z,28.90
2022-11-20T19:57:56.094Z,31.73
2022-11-20T20:00:29.695Z,27.97
2022-11-20T20:02:58.979Z,25.00
2022-11-20T20:05:25.630Z,25.77
2022-11-20T20:07:52.843Z,26.52
2022-11-20T20:10:19.642Z,22.80
2022-11-20T20:12:46.449Z,27.17
2022-11-20T20:15:13.142Z,25.13
2022-11-20T20:17:41.169Z,21.85
2022-11-20T20:20:08.745Z,25.95
2022-11-20T20:22:35.439Z,25.08
2022-11-20T20:25:02.078Z,23.37
2022-11-20T20:27:28.804Z,24.95
2022-11-20T20:29:55.874Z,23.10
2022-11-20T20:32:22.587Z,24.08
2022-11-20T20:34:50.815Z,26.60
2022-11-20T20:37:17.506Z,23.40
2022-11-20T20:39:44.223Z,23.65
2022-11-20T20:42:10.878Z,24.20
2022-11-20T20:44:37.540Z,23.08
2022-11-20T20:47:04.339Z,23.05
2022-11-20T20:49:33.033Z,22.77
2022-11-20T20:52:01.064Z,22.52
2022-11-20T20:54:33.045Z,23.35
2022-11-20T20:57:01.021Z,20.42
2022-11-20T20:59:27.706Z,21.70
2022-11-20T21:01:54.419Z,21.13
2022-11-20T21:04:21.165Z,22.15
2022-11-20T21:06:47.833Z,21.33
2022-11-20T21:09:15.894Z,18.77
2022-11-20T21:11:42.535Z,21.17
2022-11-20T21:14:09.430Z,18.77
2022-11-20T21:16:36.169Z,21.48
2022-11-20T21:19:02.888Z,21.52
2022-11-20T21:21:29.682Z,18.67
2022-11-20T21:23:56.465Z,20.50
2022-11-20T21:26:24.688Z,20.93
2022-11-20T21:28:51.357Z,19.63
2022-11-20T21:31:19.402Z,20.05
2022-11-20T21:33:47.234Z,20.23
2022-11-20T21:36:15.726Z,17.65
2022-11-20T21:38:42.962Z,17.97
2022-11-20T21:41:11.928Z,19.13
2022-11-20T21:43:40.464Z,19.35
2022-11-20T21:46:08.665Z,17.25
2022-11-20T21:48:36.769Z,21.58
2022-11-20T21:51:06.779Z,19.63
2022-11-20T21:53:37.344Z,20.65
2022-11-20T21:56:05.051Z,16.27
2022-11-20T21:58:31.762Z,12.73
2022-11-20T22:00:59.851Z,15.07
2022-11-20T22:03:26.531Z,14.37
2022-11-20T22:05:54.583Z,11.85
2022-11-20T22:08:21.205Z,13.00
2022-11-20T22:10:54.073Z,16.02
2022-11-20T22:13:20.734Z,11.27
2022-11-20T22:16:00.379Z,10.73
2022-11-20T22:18:29.356Z,9.48
2022-11-20T22:20:55.991Z,9.93
2022-11-20T22:23:22.621Z,9.02
2022-11-20T22:25:50.417Z,9.23
2022-11-20T22:28:17.081Z,9.13
2022-11-20T22:30:43.738Z,9.20
2022-11-20T22:33:13.619Z,8.30
2022-11-20T22:35:42.077Z,7.88
2022-11-20T22:38:08.774Z,7.28
2022-11-20T22:40:35.504Z,8.63
2022-11-20T22:43:02.175Z,7.72
2022-11-20T22:45:28.856Z,9.10
2022-11-20T22:47:55.482Z,7.32
2022-11-20T22:50:22.122Z,7.22
2022-11-20T22:52:50.244Z,7.30
2022-11-20T22:55:16.949Z,6.22
2022-11-20T22:57:43.621Z,6.80
2022-11-20T23:00:11.452Z,6.85
2022-11-20T23:02:43.747Z,5.78
2022-11-20T23:05:10.486Z,6.70
2022-11-20T23:07:40.836Z,5.72
2022-11-20T23:10:09.727Z,4.53
2022-11-20T23:12:36.447Z,4.50
2022-11-20T23:15:03.225Z,4.97
2022-11-20T23:17:29.906Z,4.30
2022-11-20T23:19:56.558Z,6.07
2022-11-20T23:22:23.226Z,4.45
2022-11-20T23:24:49.900Z,6.15
2022-11-20T23:27:19.797Z,4.47
2022-11-20T23:29:46.752Z,5.50
2022-11-20T23:32:13.430Z,6.20
2022-11-20T23:34:40.086Z,5.53
2022-11-20T23:37:06.718Z,3.88
2022-11-20T23:39:33.535Z,3.92
2022-11-20T23:42:00.272Z,4.40
2022-11-20T23:44:28.861Z,4.45
2022-11-20T23:46:55.812Z,4.82
2022-11-20T23:49:22.505Z,4.72
2022-11-20T23:51:49.161Z,5.50
2022-11-20T23:54:15.813Z,8.90
2022-11-20T23:56:42.530Z,5.40
2022-11-20T23:59:09.182Z,7.22
